Time;durP1;ratioP1;P1;durP2;ratioP2;P2;SDS_P1;SDS_P2;PMS_P1;PMS_P2;Temp;Humidity;BMP_temperature;BMP_pressure;BME280_temperature;BME280_humidity;BME280_pressure;Samples;Min_cycle;Max_cycle;Signal;HPM_P1;HPM_P2
2023/12/12 00:00:56;;;;;;;2.43;2.00;;;7.60;69.60;;;;;;5045791;28;20680;-65
2023/12/12 00:03:23;;;;;;;2.47;2.27;;;7.60;69.40;;;;;;5046763;28;20210;-65
2023/12/12 00:05:49;;;;;;;2.13;2.00;;;7.50;69.30;;;;;;5053939;28;20876;-65
2023/12/12 00:08:16;;;;;;;2.27;2.03;;;7.40;69.70;;;;;;5045143;28;20248;-66
2023/12/12 00:10:42;;;;;;;1.97;1.77;;;7.40;69.70;;;;;;5045575;28;20216;-65
2023/12/12 00:13:09;;;;;;;2.27;1.80;;;7.40;69.70;;;;;;5045439;28;20212;-64
2023/12/12 00:15:35;;;;;;;2.73;2.10;;;7.40;69.50;;;;;;5041755;28;20736;-64
2023/12/12 00:18:02;;;;;;;2.50;2.30;;;7.40;69.80;;;;;;5048601;28;20213;-68
2023/12/12 00:20:29;;;;;;;2.30;2.07;;;7.40;69.30;;;;;;5042784;28;20695;-66
2023/12/12 00:22:55;;;;;;;3.43;1.90;;;7.50;69.50;;;;;;5052390;28;20213;-65
2023/12/12 00:25:22;;;;;;;2.43;2.10;;;7.50;69.70;;;;;;5045025;28;20230;-65
2023/12/12 00:27:48;;;;;;;2.20;2.00;;;7.50;70.30;;;;;;5051763;28;20205;-65
2023/12/12 00:30:15;;;;;;;4.00;2.40;;;7.50;69.50;;;;;;5045779;28;20676;-67
2023/12/12 00:32:41;;;;;;;2.30;2.10;;;7.50;69.70;;;;;;5043756;28;20658;-66
2023/12/12 00:35:08;;;;;;;2.30;2.10;;;7.60;69.60;;;;;;5045208;28;20229;-66
2023/12/12 00:37:34;;;;;;;2.07;1.97;;;7.50;69.60;;;;;;5041152;28;20238;-65
2023/12/12 00:40:01;;;;;;;2.10;1.90;;;7.50;69.60;;;;;;5024573;28;20212;-64
2023/12/12 00:42:28;;;;;;;1.70;1.60;;;7.40;70.10;;;;;;5050616;28;20209;-66
2023/12/12 00:44:54;;;;;;;2.17;1.80;;;7.40;70.50;;;;;;5041874;28;20310;-65
2023/12/12 00:47:21;;;;;;;3.23;1.70;;;7.50;70.40;;;;;;5042857;28;20275;-65
2023/12/12 00:49:46;;;;;;;1.83;1.70;;;7.50;70.40;;;;;;5045088;28;20205;-65
2023/12/12 00:52:13;;;;;;;1.90;1.80;;;7.40;70.60;;;;;;5044020;28;20283;-65
2023/12/12 00:54:39;;;;;;;2.77;1.90;;;7.40;70.00;;;;;;5039698;28;20238;-65
2023/12/12 00:57:06;;;;;;;1.80;1.70;;;7.40;70.30;;;;;;5043001;28;20210;-68
2023/12/12 00:59:32;;;;;;;2.03;1.73;;;7.50;70.20;;;;;;5049818;28;20221;-66
2023/12/12 01:01:59;;;;;;;2.07;1.97;;;7.50;70.30;;;;;;5044910;28;20263;-65
2023/12/12 01:04:25;;;;;;;2.33;1.93;;;7.50;69.90;;;;;;5042599;28;20205;-65
2023/12/12 01:06:52;;;;;;;2.07;1.97;;;7.50;70.20;;;;;;5006466;28;1169144;-65
2023/12/12 01:09:19;;;;;;;2.67;1.70;;;7.50;69.80;;;;;;5047043;28;20206;-66
2023/12/12 01:11:45;;;;;;;2.03;1.80;;;7.50;69.60;;;;;;5043966;28;20313;-65
2023/12/12 01:14:12;;;;;;;1.93;1.83;;;7.50;69.80;;;;;;5043342;28;20237;-66
2023/12/12 01:16:39;;;;;;;2.90;2.10;;;7.50;69.90;;;;;;5048701;28;20329;-69
2023/12/12 01:19:05;;;;;;;2.00;1.90;;;7.50;70.40;;;;;;5046831;28;20244;-65
2023/12/12 01:21:32;;;;;;;1.90;1.80;;;7.60;70.20;;;;;;5043137;28;20606;-65
2023/12/12 01:23:59;;;;;;;3.27;2.00;;;7.60;70.40;;;;;;5049178;28;20287;-65
2023/12/12 01:26:25;;;;;;;1.97;1.70;;;7.50;69.70;;;;;;5044475;28;20252;-64
2023/12/12 01:28:52;;;;;;;2.17;1.80;;;7.50;69.90;;;;;;5053640;28;20205;-67
2023/12/12 01:31:18;;;;;;;2.50;1.70;;;7.50;69.70;;;;;;5048298;28;20221;-66
2023/12/12 01:33:45;;;;;;;2.27;2.03;;;7.50;70.20;;;;;;5046583;28;20297;-65
2023/12/12 01:36:11;;;;;;;2.03;1.83;;;7.50;69.90;;;;;;5045287;28;20298;-65
2023/12/12 01:38:38;;;;;;;3.27;1.90;;;7.50;70.40;;;;;;5040891;28;20236;-64
2023/12/12 01:41:03;;;;;;;2.20;2.00;;;7.50;70.20;;;;;;5043037;28;20200;-67
2023/12/12 01:43:30;;;;;;;3.03;2.23;;;7.50;70.40;;;;;;5042959;28;20579;-65
2023/12/12 01:45:56;;;;;;;2.20;2.00;;;7.50;70.40;;;;;;5052245;28;20318;-66
2023/12/12 01:48:23;;;;;;;2.20;1.80;;;7.60;70.10;;;;;;5040444;28;20229;-66
2023/12/12 01:50:49;;;;;;;2.67;1.90;;;7.60;70.00;;;;;;5046108;28;20214;-66
2023/12/12 01:53:16;;;;;;;2.57;1.83;;;7.60;70.10;;;;;;5045947;28;20650;-65
2023/12/12 01:55:42;;;;;;;2.10;1.87;;;7.60;70.50;;;;;;5052407;28;20233;-66
2023/12/12 01:58:09;;;;;;;2.00;1.80;;;7.50;70.00;;;;;;5044181;28;20838;-64
2023/12/12 02:00:35;;;;;;;2.00;1.90;;;7.50;70.20;;;;;;5044642;28;20240;-67
2023/12/12 02:03:02;;;;;;;2.03;1.70;;;7.50;70.80;;;;;;5036911;28;20202;-65
2023/12/12 02:05:29;;;;;;;2.00;1.70;;;7.40;70.80;;;;;;5049004;28;20234;-64
2023/12/12 02:07:56;;;;;;;1.90;1.80;;;7.40;71.10;;;;;;5046786;28;20842;-65
2023/12/12 02:10:23;;;;;;;1.80;1.67;;;7.50;70.60;;;;;;5037687;28;20202;-64
2023/12/12 02:12:49;;;;;;;2.30;1.80;;;7.60;70.50;;;;;;5041555;28;20326;-64
2023/12/12 02:15:16;;;;;;;1.70;1.60;;;7.60;70.10;;;;;;5043490;28;20226;-64
2023/12/12 02:17:42;;;;;;;1.80;1.70;;;7.60;69.90;;;;;;5045382;28;20233;-66
2023/12/12 02:20:09;;;;;;;1.97;1.80;;;7.50;70.50;;;;;;5043371;28;20263;-64
2023/12/12 02:22:35;;;;;;;2.00;1.80;;;7.50;70.40;;;;;;5044791;28;20733;-64
2023/12/12 02:25:02;;;;;;;1.90;1.80;;;7.50;70.40;;;;;;5049856;28;20268;-64
2023/12/12 02:27:28;;;;;;;2.10;1.80;;;7.50;71.00;;;;;;5040055;28;20202;-67
2023/12/12 02:29:55;;;;;;;3.13;1.70;;;7.50;70.40;;;;;;5046995;28;20216;-65
2023/12/12 02:32:21;;;;;;;2.00;1.90;;;7.50;70.70;;;;;;5044111;28;20229;-65
2023/12/12 02:34:48;;;;;;;2.53;2.00;;;7.50;70.90;;;;;;5039942;28;20679;-64
2023/12/12 02:37:14;;;;;;;2.60;1.90;;;7.40;70.40;;;;;;5042864;28;20202;-64
2023/12/12 02:39:41;;;;;;;2.33;1.93;;;7.40;71.40;;;;;;5040308;28;20211;-67
2023/12/12 02:42:08;;;;;;;2.27;1.90;;;7.40;71.20;;;;;;5048092;28;20206;-64
2023/12/12 02:44:35;;;;;;;3.83;1.90;;;7.50;71.00;;;;;;5040491;28;20202;-65
2023/12/12 02:47:01;;;;;;;2.10;1.90;;;7.40;70.90;;;;;;5035518;28;20227;-64
2023/12/12 02:49:28;;;;;;;2.30;1.87;;;7.40;71.50;;;;;;5040505;28;20274;-66
2023/12/12 02:51:54;;;;;;;2.47;1.80;;;7.40;71.00;;;;;;5046008;28;20257;-64
2023/12/12 02:54:20;;;;;;;2.10;1.87;;;7.40;72.20;;;;;;5037065;28;20244;-65
2023/12/12 02:56:47;;;;;;;1.63;1.53;;;7.40;72.10;;;;;;5046415;28;20817;-65
2023/12/12 02:59:13;;;;;;;1.90;1.80;;;7.40;71.90;;;;;;5044051;28;20211;-64
2023/12/12 03:01:40;;;;;;;1.80;1.67;;;7.50;71.70;;;;;;5042446;28;20653;-65
2023/12/12 03:04:06;;;;;;;1.97;1.70;;;7.50;71.30;;;;;;5047551;28;20241;-66
2023/12/12 03:06:33;;;;;;;2.07;1.87;;;7.40;71.80;;;;;;5047110;28;20263;-65
2023/12/12 03:08:59;;;;;;;1.73;1.63;;;7.40;72.10;;;;;;5040329;28;20206;-64
2023/12/12 03:11:26;;;;;;;1.80;1.70;;;7.40;72.10;;;;;;5045517;28;20578;-67
2023/12/12 03:13:52;;;;;;;2.00;1.70;;;7.40;72.30;;;;;;5043378;28;20272;-64
2023/12/12 03:16:19;;;;;;;2.20;2.00;;;7.40;72.30;;;;;;5042238;28;20260;-71
2023/12/12 03:18:46;;;;;;;2.80;1.80;;;7.40;72.20;;;;;;5040952;28;20700;-64
2023/12/12 03:21:12;;;;;;;1.80;1.70;;;7.50;71.90;;;;;;5039492;28;20237;-65
2023/12/12 03:23:39;;;;;;;1.97;1.87;;;7.40;72.20;;;;;;5042492;28;20209;-64
2023/12/12 03:26:08;;;;;;;2.10;1.80;;;7.30;72.20;;;;;;5046689;28;20233;-66
2023/12/12 03:28:34;;;;;;;3.30;2.10;;;7.40;72.70;;;;;;5048397;28;20684;-65
2023/12/12 03:31:01;;;;;;;2.20;2.00;;;7.40;73.00;;;;;;5039288;28;20306;-64
2023/12/12 03:33:27;;;;;;;1.83;1.60;;;7.40;72.50;;;;;;5046748;28;20298;-64
2023/12/12 03:35:54;;;;;;;2.57;1.70;;;7.50;72.50;;;;;;5039153;28;20872;-66
2023/12/12 03:38:20;;;;;;;1.70;1.60;;;7.50;73.00;;;;;;5042718;28;20209;-65
2023/12/12 03:40:47;;;;;;;1.80;1.70;;;7.50;72.30;;;;;;5045048;28;20282;-66
2023/12/12 03:43:13;;;;;;;2.13;1.60;;;7.50;72.50;;;;;;5045047;28;20209;-65
2023/12/12 03:45:40;;;;;;;1.70;1.60;;;7.50;72.20;;;;;;5044534;28;20221;-64
2023/12/12 03:48:07;;;;;;;3.00;1.70;;;7.60;72.10;;;;;;5045331;28;20565;-65
2023/12/12 03:50:34;;;;;;;1.97;1.57;;;7.60;72.50;;;;;;5046162;28;20241;-64
2023/12/12 03:53:00;;;;;;;2.20;1.80;;;7.60;72.20;;;;;;5039816;28;20699;-65
2023/12/12 03:55:27;;;;;;;1.80;1.70;;;7.70;71.60;;;;;;5040648;28;20631;-65
2023/12/12 03:57:53;;;;;;;1.93;1.70;;;7.70;71.30;;;;;;5043112;28;20205;-65
2023/12/12 04:00:20;;;;;;;1.50;1.40;;;7.70;71.40;;;;;;5041834;28;20217;-65
2023/12/12 04:02:46;;;;;;;2.80;1.63;;;7.70;71.80;;;;;;5039385;28;20289;-65
2023/12/12 04:05:13;;;;;;;1.60;1.50;;;7.70;71.70;;;;;;5039361;28;20238;-65
2023/12/12 04:07:39;;;;;;;2.03;1.50;;;7.70;71.90;;;;;;5047307;28;20209;-66
2023/12/12 04:10:05;;;;;;;2.03;1.70;;;7.70;71.60;;;;;;5041590;28;20274;-65
2023/12/12 04:12:31;;;;;;;1.80;1.70;;;7.70;71.30;;;;;;5049091;28;20822;-65
2023/12/12 04:14:58;;;;;;;2.87;1.90;;;7.70;71.10;;;;;;5051460;28;20281;-66
2023/12/12 04:17:24;;;;;;;2.00;1.80;;;7.80;71.30;;;;;;5040838;28;20202;-66
2023/12/12 04:19:51;;;;;;;1.73;1.50;;;7.70;71.30;;;;;;5044530;28;20210;-65
2023/12/12 04:22:17;;;;;;;1.90;1.73;;;7.70;71.70;;;;;;5042651;28;20242;-65
2023/12/12 04:24:44;;;;;;;1.90;1.80;;;7.70;71.50;;;;;;5042519;28;20246;-65
2023/12/12 04:27:10;;;;;;;2.87;2.63;;;7.70;71.20;;;;;;5042272;28;20211;-65
2023/12/12 04:29:37;;;;;;;1.90;1.80;;;7.70;71.70;;;;;;5041494;28;20197;-65
2023/12/12 04:32:03;;;;;;;1.90;1.80;;;7.70;71.70;;;;;;5044759;28;20253;-66
2023/12/12 04:34:30;;;;;;;2.00;1.90;;;7.80;71.50;;;;;;5048019;28;20266;-65
2023/12/12 04:36:56;;;;;;;1.97;1.77;;;7.80;71.40;;;;;;5042766;28;20667;-65
2023/12/12 04:39:22;;;;;;;2.60;1.70;;;7.80;72.00;;;;;;5044969;28;20233;-65
2023/12/12 04:41:48;;;;;;;2.00;1.63;;;7.90;71.40;;;;;;5048284;28;20689;-65
2023/12/12 04:44:15;;;;;;;2.03;1.80;;;7.80;71.40;;;;;;5048253;28;20295;-65
2023/12/12 04:46:41;;;;;;;1.90;1.80;;;7.90;72.10;;;;;;5046951;28;20248;-65
2023/12/12 04:49:08;;;;;;;1.83;1.73;;;8.00;71.50;;;;;;5042228;28;20241;-66
2023/12/12 04:51:34;;;;;;;2.43;1.80;;;7.90;71.00;;;;;;5050534;28;20233;-65
2023/12/12 04:54:01;;;;;;;1.80;1.70;;;7.90;71.90;;;;;;5044691;28;20262;-65
2023/12/12 04:56:27;;;;;;;3.27;1.70;;;7.90;72.00;;;;;;5045564;28;20222;-65
2023/12/12 04:58:54;;;;;;;2.30;1.90;;;8.00;72.60;;;;;;5044396;28;20276;-65
2023/12/12 05:01:20;;;;;;;1.80;1.40;;;8.00;72.30;;;;;;5045578;28;20205;-66
2023/12/12 05:03:47;;;;;;;1.80;1.70;;;8.00;72.60;;;;;;5047114;28;20209;-66
2023/12/12 05:06:13;;;;;;;2.10;1.83;;;8.00;72.20;;;;;;5044871;28;20679;-65
2023/12/12 05:08:43;;;;;;;3.50;1.90;;;8.00;72.70;;;;;;5045867;28;20276;-65
2023/12/12 05:11:09;;;;;;;2.00;1.80;;;8.00;73.10;;;;;;5046037;28;20210;-65
2023/12/12 05:13:36;;;;;;;1.80;1.70;;;7.90;73.70;;;;;;5050949;28;20274;-65
2023/12/12 05:16:03;;;;;;;2.60;1.70;;;8.00;73.40;;;;;;5043776;28;20226;-65
2023/12/12 05:18:29;;;;;;;1.93;1.70;;;7.90;73.60;;;;;;5043455;28;20241;-65
2023/12/12 05:20:56;;;;;;;3.50;1.80;;;7.90;73.40;;;;;;5045065;28;20693;-65
2023/12/12 05:23:22;;;;;;;2.20;2.00;;;7.80;73.80;;;;;;5043524;28;20255;-65
2023/12/12 05:25:49;;;;;;;2.33;1.90;;;7.80;74.20;;;;;;5046531;28;20229;-65
2023/12/12 05:28:17;;;;;;;1.90;1.80;;;7.90;74.00;;;;;;5044215;28;20209;-68
2023/12/12 05:30:44;;;;;;;3.53;2.03;;;7.90;73.50;;;;;;5045766;28;20248;-66
2023/12/12 05:33:10;;;;;;;1.93;1.77;;;7.90;73.80;;;;;;5046018;28;20234;-65
2023/12/12 05:35:37;;;;;;;2.00;1.90;;;7.90;73.40;;;;;;5043161;28;20583;-70
2023/12/12 05:38:05;;;;;;;2.47;2.03;;;7.90;73.60;;;;;;5049998;28;20301;-65
2023/12/12 05:40:31;;;;;;;3.33;2.10;;;7.80;73.90;;;;;;5047525;28;20267;-65
2023/12/12 05:42:58;;;;;;;2.73;1.70;;;8.00;74.30;;;;;;5046501;28;20264;-65
2023/12/12 05:45:25;;;;;;;2.67;2.00;;;7.90;73.70;;;;;;5049127;28;20228;-66
2023/12/12 05:47:51;;;;;;;2.30;2.10;;;7.90;73.30;;;;;;5044137;28;20696;-65
2023/12/12 05:50:18;;;;;;;2.20;2.10;;;8.00;73.70;;;;;;5046388;28;20542;-66
2023/12/12 05:52:44;;;;;;;2.30;2.10;;;7.80;73.60;;;;;;5045066;28;20229;-65
2023/12/12 05:55:11;;;;;;;2.50;2.30;;;7.90;73.70;;;;;;5044835;28;20282;-65
2023/12/12 05:57:38;;;;;;;2.50;2.13;;;7.90;74.30;;;;;;5042962;28;20297;-65
2023/12/12 06:00:05;;;;;;;2.97;2.00;;;7.80;73.90;;;;;;5041228;28;20700;-67
2023/12/12 06:02:32;;;;;;;2.50;2.30;;;7.80;73.50;;;;;;5043286;28;20328;-64
2023/12/12 06:04:58;;;;;;;2.00;1.87;;;7.70;73.60;;;;;;5044996;28;20668;-64
2023/12/12 06:07:25;;;;;;;2.00;1.83;;;7.70;72.80;;;;;;5044973;28;20210;-65
2023/12/12 06:09:52;;;;;;;2.30;2.20;;;7.80;72.90;;;;;;5043358;28;20297;-66
2023/12/12 06:12:19;;;;;;;2.50;2.30;;;7.70;72.00;;;;;;5052560;28;20212;-65
2023/12/12 06:14:45;;;;;;;2.87;2.07;;;7.70;71.90;;;;;;5045503;28;20282;-66
2023/12/12 06:17:12;;;;;;;2.57;2.23;;;7.70;72.40;;;;;;5050282;28;20209;-66
2023/12/12 06:19:39;;;;;;;2.50;2.07;;;7.70;71.70;;;;;;5041170;28;20297;-65
2023/12/12 06:22:07;;;;;;;2.53;2.33;;;7.70;72.00;;;;;;5048172;28;20267;-65
2023/12/12 06:24:34;;;;;;;2.40;2.20;;;7.70;72.10;;;;;;5044284;28;20213;-64
2023/12/12 06:27:00;;;;;;;2.67;2.47;;;7.80;71.60;;;;;;5044108;28;20281;-69
2023/12/12 06:29:27;;;;;;;2.47;2.23;;;7.80;71.40;;;;;;5041881;28;20208;-65
2023/12/12 06:31:53;;;;;;;4.33;2.63;;;7.70;71.90;;;;;;5035296;28;20218;-66
2023/12/12 06:34:20;;;;;;;2.87;2.57;;;7.70;72.10;;;;;;5044379;28;20222;-65
2023/12/12 06:36:47;;;;;;;2.97;2.70;;;7.80;72.30;;;;;;5046122;28;20588;-66
2023/12/12 06:39:14;;;;;;;3.13;2.23;;;7.80;71.00;;;;;;5043977;28;20283;-65
2023/12/12 06:41:41;;;;;;;2.90;2.67;;;7.70;71.10;;;;;;5048129;28;20205;-67
2023/12/12 06:44:07;;;;;;;2.40;2.20;;;7.70;71.60;;;;;;5044981;28;20201;-65
2023/12/12 06:46:36;;;;;;;2.40;2.20;;;7.60;71.80;;;;;;5052098;28;20260;-66
2023/12/12 06:49:03;;;;;;;3.40;2.17;;;7.60;71.70;;;;;;5037607;28;20241;-73
2023/12/12 06:51:30;;;;;;;2.57;2.37;;;7.70;71.80;;;;;;5042472;28;20676;-68
2023/12/12 06:53:58;;;;;;;4.03;2.50;;;7.70;72.20;;;;;;5043742;28;20229;-66
2023/12/12 06:56:25;;;;;;;3.20;2.83;;;7.70;72.00;;;;;;5043351;28;20724;-65
2023/12/12 06:58:51;;;;;;;2.93;2.63;;;7.50;71.10;;;;;;5038977;28;20653;-65
2023/12/12 07:01:18;;;;;;;2.30;2.10;;;7.30;72.10;;;;;;5048236;28;20286;-68
2023/12/12 07:03:44;;;;;;;2.33;2.13;;;7.00;72.30;;;;;;5043531;28;20255;-65
2023/12/12 07:06:11;;;;;;;2.77;2.03;;;7.00;73.20;;;;;;5043342;28;20244;-65
2023/12/12 07:08:37;;;;;;;1.90;1.70;;;7.00;72.40;;;;;;5022707;28;20688;-65
2023/12/12 07:11:04;;;;;;;2.10;2.00;;;7.00;72.40;;;;;;5032056;28;20214;-65
2023/12/12 07:13:30;;;;;;;2.00;1.90;;;7.10;71.30;;;;;;5042476;28;20712;-67
2023/12/12 07:15:57;;;;;;;2.97;1.80;;;7.00;69.90;;;;;;5048764;28;20733;-67
2023/12/12 07:18:24;;;;;;;3.10;2.07;;;7.00;71.00;;;;;;5039656;28;20259;-65
2023/12/12 07:20:51;;;;;;;2.50;2.30;;;7.00;70.10;;;;;;5045232;28;20207;-65
2023/12/12 07:23:17;;;;;;;2.00;1.87;;;7.20;70.30;;;;;;5042806;28;20212;-67
2023/12/12 07:25:44;;;;;;;2.87;2.23;;;7.30;70.70;;;;;;5044762;28;20229;-64
2023/12/12 07:28:10;;;;;;;2.50;2.23;;;7.30;69.90;;;;;;5043721;28;20209;-65
2023/12/12 07:30:37;;;;;;;3.63;2.80;;;7.30;69.50;;;;;;5043213;28;20219;-64
2023/12/12 07:33:03;;;;;;;3.93;2.47;;;7.30;68.90;;;;;;5036751;28;20225;-65
2023/12/12 07:35:30;;;;;;;2.60;2.30;;;7.30;68.30;;;;;;5045782;28;20256;-66
2023/12/12 07:37:56;;;;;;;2.97;2.47;;;7.20;68.70;;;;;;5045651;28;20640;-66
2023/12/12 07:40:23;;;;;;;3.93;2.60;;;7.20;68.70;;;;;;5036503;28;20209;-65
2023/12/12 07:42:50;;;;;;;2.30;2.10;;;7.10;69.20;;;;;;5043229;28;20201;-65
2023/12/12 07:45:16;;;;;;;1.90;1.80;;;7.10;68.10;;;;;;5041687;28;20221;-68
2023/12/12 07:47:43;;;;;;;2.10;1.77;;;7.20;67.90;;;;;;5044300;28;20263;-66
2023/12/12 07:50:09;;;;;;;2.60;2.10;;;7.20;67.80;;;;;;5051199;28;20197;-65
2023/12/12 07:52:36;;;;;;;3.53;2.10;;;7.00;67.50;;;;;;5047090;28;20255;-65
2023/12/12 07:55:02;;;;;;;2.37;2.10;;;7.10;67.80;;;;;;5045902;28;20412;-65
2023/12/12 07:57:29;;;;;;;3.23;2.07;;;7.00;67.00;;;;;;5041278;28;20625;-65
2023/12/12 07:59:55;;;;;;;3.20;2.50;;;6.90;66.60;;;;;;5021372;28;21067;-65
2023/12/12 08:02:24;;;;;;;2.00;1.90;;;6.80;68.00;;;;;;5035874;28;20642;-64
2023/12/12 08:04:57;;;;;;;6.47;2.20;;;6.90;67.80;;;;;;5030307;28;20222;-68
2023/12/12 08:07:24;;;;;;;6.07;2.13;;;6.90;67.80;;;;;;5031187;28;20231;-66
2023/12/12 08:09:50;;;;;;;3.30;2.87;;;7.00;67.50;;;;;;5039579;28;20232;-65
2023/12/12 08:12:17;;;;;;;1.90;1.80;;;7.10;67.40;;;;;;5040376;28;20209;-65
2023/12/12 08:14:44;;;;;;;2.30;2.10;;;7.00;65.90;;;;;;5040984;28;20229;-70
2023/12/12 08:17:10;;;;;;;2.57;2.37;;;6.90;66.60;;;;;;5022470;28;20206;-65
2023/12/12 08:19:38;;;;;;;2.23;2.07;;;6.90;66.80;;;;;;5032283;28;20663;-70
2023/12/12 08:22:04;;;;;;;2.80;2.43;;;7.00;67.10;;;;;;5042810;28;20262;-65
2023/12/12 08:24:31;;;;;;;5.97;2.60;;;7.10;66.30;;;;;;5046105;28;20561;-65
2023/12/12 08:26:57;;;;;;;2.70;2.50;;;7.10;66.00;;;;;;5048570;28;20209;-65
2023/12/12 08:29:25;;;;;;;2.50;2.30;;;7.10;65.60;;;;;;5030737;28;20770;-64
2023/12/12 08:31:52;;;;;;;3.33;2.50;;;7.20;66.20;;;;;;4987707;28;20674;-65
2023/12/12 08:34:18;;;;;;;5.73;3.70;;;7.30;65.60;;;;;;5024201;28;20234;-72
2023/12/12 08:36:45;;;;;;;3.07;2.50;;;7.30;65.60;;;;;;5021199;28;20479;-65
2023/12/12 08:39:15;;;;;;;2.40;2.20;;;7.40;65.50;;;;;;5019112;28;20210;-64
2023/12/12 08:41:42;;;;;;;3.20;2.30;;;7.40;64.00;;;;;;5012943;28;20251;-72
2023/12/12 08:44:09;;;;;;;2.27;2.07;;;7.40;64.40;;;;;;5017104;28;20550;-62
2023/12/12 08:46:35;;;;;;;3.73;2.20;;;7.50;64.00;;;;;;5018740;28;20226;-67
2023/12/12 08:49:02;;;;;;;2.20;2.00;;;7.60;64.30;;;;;;5033710;28;20209;-65
2023/12/12 08:51:30;;;;;;;4.13;2.30;;;7.60;63.70;;;;;;5032807;28;20213;-64
2023/12/12 08:53:58;;;;;;;3.17;2.10;;;7.70;63.60;;;;;;5032268;28;20656;-63
2023/12/12 08:56:25;;;;;;;3.23;2.20;;;7.60;62.30;;;;;;5029654;28;20229;-64
2023/12/12 08:58:51;;;;;;;2.83;2.30;;;7.70;63.00;;;;;;5027276;28;20727;-64
2023/12/12 09:01:18;;;;;;;2.77;2.13;;;7.70;64.30;;;;;;5026077;28;20608;-65
2023/12/12 09:03:44;;;;;;;3.70;3.40;;;7.70;62.90;;;;;;5024151;28;20207;-64
2023/12/12 09:06:11;;;;;;;3.77;2.23;;;7.70;63.60;;;;;;5025388;28;20754;-62
2023/12/12 09:08:38;;;;;;;2.77;2.50;;;7.70;62.60;;;;;;5030845;28;20209;-65
2023/12/12 09:11:04;;;;;;;4.00;2.13;;;7.70;63.00;;;;;;5028441;28;20587;-65
2023/12/12 09:13:31;;;;;;;2.60;2.40;;;7.50;62.10;;;;;;5026581;28;20258;-66
2023/12/12 09:15:58;;;;;;;2.60;2.30;;;7.40;63.50;;;;;;5031467;28;20321;-64
2023/12/12 09:18:24;;;;;;;3.17;2.27;;;7.50;63.40;;;;;;5021893;28;20613;-64
2023/12/12 09:20:51;;;;;;;2.30;2.20;;;7.50;62.90;;;;;;5010618;28;20325;-65
2023/12/12 09:23:17;;;;;;;5.73;2.70;;;7.50;63.40;;;;;;5029953;28;20200;-65
2023/12/12 09:25:44;;;;;;;2.47;2.27;;;7.50;63.50;;;;;;5021799;28;20229;-65
2023/12/12 09:28:10;;;;;;;2.50;2.30;;;7.50;62.90;;;;;;5024188;28;20269;-71
2023/12/12 09:30:37;;;;;;;4.60;2.30;;;7.60;62.40;;;;;;5016900;28;20210;-67
2023/12/12 09:33:03;;;;;;;2.67;2.40;;;7.70;62.90;;;;;;5023253;28;20233;-66
2023/12/12 09:35:33;;;;;;;2.80;2.57;;;7.70;62.80;;;;;;5019580;28;20284;-66
2023/12/12 09:38:03;;;;;;;2.90;2.67;;;7.70;62.30;;;;;;5015935;28;20720;-65
2023/12/12 09:40:29;;;;;;;2.90;2.53;;;7.60;61.70;;;;;;5018410;28;20210;-64
2023/12/12 09:42:56;;;;;;;9.30;3.10;;;7.50;62.00;;;;;;5024435;28;20240;-66
2023/12/12 09:45:25;;;;;;;3.10;2.80;;;7.50;63.20;;;;;;5023838;28;20280;-66
2023/12/12 09:47:52;;;;;;;3.03;2.60;;;7.70;63.20;;;;;;4988807;28;20227;-65
2023/12/12 09:50:26;;;;;;;5.30;3.07;;;7.80;61.50;;;;;;5017210;28;20285;-72
2023/12/12 09:52:53;;;;;;;3.90;2.60;;;7.90;61.60;;;;;;5023302;28;20236;-65
2023/12/12 09:55:19;;;;;;;2.50;2.30;;;7.90;60.60;;;;;;5020391;28;20944;-65
2023/12/12 09:57:46;;;;;;;2.90;2.40;;;7.90;60.70;;;;;;5027147;28;20226;-66
2023/12/12 10:00:14;;;;;;;2.43;2.10;;;8.00;61.20;;;;;;5029328;28;20233;-65
2023/12/12 10:02:41;;;;;;;2.30;2.10;;;8.10;60.80;;;;;;5032789;28;20718;-64
2023/12/12 10:05:09;;;;;;;3.30;2.40;;;8.00;60.80;;;;;;5010058;28;20314;-73
2023/12/12 10:07:35;;;;;;;4.07;2.77;;;8.00;61.60;;;;;;5014193;28;20210;-64
2023/12/12 10:10:05;;;;;;;2.43;2.20;;;7.90;61.30;;;;;;5027010;28;20230;-65
2023/12/12 10:12:31;;;;;;;2.37;2.17;;;8.00;61.00;;;;;;5025683;28;20233;-68
2023/12/12 10:14:58;;;;;;;2.50;2.30;;;8.00;61.00;;;;;;5033132;28;20227;-64
2023/12/12 10:17:26;;;;;;;4.80;2.50;;;8.10;61.20;;;;;;5031890;28;20208;-65
2023/12/12 10:19:53;;;;;;;2.87;2.53;;;8.20;61.30;;;;;;5027475;28;20743;-64
2023/12/12 10:22:19;;;;;;;3.97;2.63;;;8.10;60.30;;;;;;5032720;28;20326;-64
2023/12/12 10:24:46;;;;;;;3.30;2.40;;;8.20;60.00;;;;;;5028138;28;20229;-69
2023/12/12 10:27:12;;;;;;;2.87;2.20;;;8.20;60.40;;;;;;5025971;28;20211;-65
2023/12/12 10:29:39;;;;;;;3.83;2.23;;;8.20;60.00;;;;;;5033009;28;20260;-65
2023/12/12 10:32:05;;;;;;;3.50;2.30;;;8.30;60.70;;;;;;5023376;28;20203;-65
2023/12/12 10:34:32;;;;;;;2.70;2.50;;;8.20;60.30;;;;;;5032211;28;20732;-64
2023/12/12 10:36:58;;;;;;;2.50;2.30;;;8.30;60.10;;;;;;5033001;28;20210;-67
2023/12/12 10:39:25;;;;;;;2.97;2.50;;;8.20;60.60;;;;;;5022279;28;20627;-65
2023/12/12 10:41:50;;;;;;;3.30;2.33;;;8.40;60.80;;;;;;5016251;28;20270;-65
2023/12/12 10:44:17;;;;;;;3.00;2.70;;;8.40;60.50;;;;;;5022195;28;20206;-65
2023/12/12 10:46:43;;;;;;;2.60;2.40;;;8.40;60.70;;;;;;5032467;28;20284;-67
2023/12/12 10:49:10;;;;;;;4.23;2.47;;;8.50;60.60;;;;;;5027564;28;20210;-61
2023/12/12 10:51:36;;;;;;;3.30;2.27;;;8.60;62.20;;;;;;5022423;28;20688;-63
2023/12/12 10:54:03;;;;;;;2.70;2.30;;;8.90;61.10;;;;;;5026863;28;20242;-62
2023/12/12 10:56:35;;;;;;;3.57;2.20;;;9.10;60.40;;;;;;5023730;28;20723;-63
2023/12/12 10:59:02;;;;;;;2.50;1.97;;;9.20;60.90;;;;;;5019239;28;20625;-64
2023/12/12 11:01:29;;;;;;;73.30;14.47;;;9.20;60.20;;;;;;5026524;28;20241;-64
2023/12/12 11:03:57;;;;;;;2.73;2.43;;;9.10;59.60;;;;;;5022883;28;20262;-67
2023/12/12 11:06:24;;;;;;;2.20;2.00;;;9.10;59.70;;;;;;5027214;28;20407;-65
2023/12/12 11:08:52;;;;;;;4.03;2.40;;;9.00;59.80;;;;;;5020763;28;20295;-64
2023/12/12 11:11:19;;;;;;;3.17;2.00;;;8.80;60.40;;;;;;5015620;28;20220;-61
2023/12/12 11:13:45;;;;;;;3.87;2.40;;;8.80;62.30;;;;;;5025449;28;20207;-65
2023/12/12 11:16:13;;;;;;;3.50;2.50;;;8.80;62.20;;;;;;5021986;28;20249;-68
2023/12/12 11:18:40;;;;;;;4.07;2.20;;;8.70;63.30;;;;;;4998592;28;20211;-66
2023/12/12 11:21:06;;;;;;;2.70;2.50;;;8.70;64.00;;;;;;5013586;28;20206;-66
2023/12/12 11:23:32;;;;;;;4.27;2.63;;;8.60;64.40;;;;;;5005209;28;20216;-64
2023/12/12 11:25:59;;;;;;;3.03;2.60;;;8.60;64.20;;;;;;5007246;28;20233;-65
2023/12/12 11:28:26;;;;;;;2.50;2.30;;;8.60;64.20;;;;;;5006134;28;20206;-67
2023/12/12 11:30:52;;;;;;;2.87;2.50;;;8.60;65.10;;;;;;5003414;28;20213;-69
2023/12/12 11:33:19;;;;;;;3.30;2.53;;;8.60;65.90;;;;;;5003691;28;20733;-65
2023/12/12 11:35:45;;;;;;;4.60;2.50;;;8.50;67.50;;;;;;5011438;28;20250;-65
2023/12/12 11:38:12;;;;;;;5.43;2.40;;;8.50;67.00;;;;;;5014952;28;22338;-68
2023/12/12 11:40:38;;;;;;;4.43;2.50;;;8.60;68.30;;;;;;5011002;28;22523;-66
2023/12/12 11:43:05;;;;;;;3.90;2.37;;;8.60;68.20;;;;;;5008943;28;20261;-63
2023/12/12 11:45:31;;;;;;;2.80;2.40;;;8.60;69.00;;;;;;5009939;28;21011;-62
2023/12/12 11:47:58;;;;;;;4.23;2.50;;;8.50;71.30;;;;;;5012028;28;20260;-66
2023/12/12 11:50:24;;;;;;;3.17;2.50;;;8.50;71.30;;;;;;5010111;28;20647;-64
2023/12/12 11:52:51;;;;;;;3.73;2.43;;;8.50;72.40;;;;;;5012807;28;20941;-65
2023/12/12 11:55:18;;;;;;;2.80;2.57;;;8.50;72.80;;;;;;5001056;28;20240;-65
2023/12/12 11:57:44;;;;;;;2.90;2.63;;;8.40;73.90;;;;;;5026183;28;20202;-64
2023/12/12 12:00:11;;;;;;;3.93;2.63;;;8.40;73.80;;;;;;5014830;28;20328;-64
2023/12/12 12:02:38;;;;;;;3.77;2.47;;;8.60;74.10;;;;;;5014878;28;20295;-62
2023/12/12 12:05:05;;;;;;;5.53;2.73;;;8.40;75.60;;;;;;5022631;28;20682;-66
2023/12/12 12:07:31;;;;;;;4.67;2.63;;;8.40;75.60;;;;;;5029011;28;20226;-65
2023/12/12 12:09:58;;;;;;;2.30;2.10;;;8.50;75.20;;;;;;5030109;28;20676;-63
2023/12/12 12:12:24;;;;;;;3.03;2.60;;;8.50;74.60;;;;;;5029578;28;20199;-62
2023/12/12 12:14:51;;;;;;;3.53;2.50;;;8.60;75.20;;;;;;5027751;28;20616;-64
2023/12/12 12:17:17;;;;;;;3.77;3.33;;;8.40;76.00;;;;;;5022197;28;20214;-64
2023/12/12 12:19:44;;;;;;;4.47;2.90;;;8.40;76.20;;;;;;5029200;28;20271;-62
2023/12/12 12:22:10;;;;;;;3.33;2.90;;;8.40;76.80;;;;;;5026991;28;20219;-63
2023/12/12 12:24:37;;;;;;;3.97;2.80;;;8.40;76.90;;;;;;5030975;28;20668;-62
2023/12/12 12:27:04;;;;;;;5.00;2.73;;;8.50;77.70;;;;;;5031699;28;20206;-67
2023/12/12 12:29:30;;;;;;;5.03;3.23;;;8.40;78.00;;;;;;5032855;28;20210;-65
2023/12/12 12:31:57;;;;;;;2.90;2.70;;;8.50;78.40;;;;;;5032191;28;20299;-65
2023/12/12 12:34:23;;;;;;;4.03;3.07;;;8.50;78.40;;;;;;5021022;28;20234;-62
2023/12/12 12:36:51;;;;;;;3.13;2.83;;;8.50;79.10;;;;;;5028973;28;20272;-67
2023/12/12 12:39:18;;;;;;;3.90;2.70;;;8.50;79.20;;;;;;5031061;28;20346;-63
2023/12/12 12:41:46;;;;;;;2.93;2.63;;;8.50;79.00;;;;;;5033192;28;20249;-66
2023/12/12 12:44:12;;;;;;;3.30;2.70;;;8.50;80.10;;;;;;5027414;28;20213;-65
2023/12/12 12:46:39;;;;;;;3.07;2.77;;;8.50;80.30;;;;;;5024373;28;20272;-65
2023/12/12 12:49:05;;;;;;;5.03;2.70;;;8.60;80.30;;;;;;5021718;28;20207;-62
2023/12/12 12:51:32;;;;;;;8.77;4.13;;;8.60;80.70;;;;;;5028368;28;20198;-64
2023/12/12 12:53:58;;;;;;;5.90;2.80;;;8.60;80.50;;;;;;5023343;28;20243;-64